• Join FlightAware (Why Join?)
  • Login
  • US Flag GB Flag 
09:31 EDT


 

Airport Tracker/Info


-or-


 

Live Flight TrackerFlight Track Log ✈ SWA470 ✈ 09-May-2013 ✈ KMDW - KDSM

Flight Track Log - Related Links

Times and Time Zones

All times are in EDT time to prevent confusion due to time zone crossing. See the SWA470 flight status page for this flight to view local times or setup timezone preferences in your user account.

Time Position Orientation Groundspeed Altitude Reporting Facility
EDT Latitude Longitude Course Direction KTS MPH feet Rate Location/Type
14:05 41.8958 -88.0236 270° West  Level Estimated
14:09 41.7341 -88.4900 264° West  Level FlightAware Approximate
14:12 41.8675 -88.6934 263° West  Level Estimated
14:13 41.8222 -88.7674 231° Southwest  Level FlightAware Approximate
14:13 41.7703 -87.7828 265° West 158 182 2,100  Level Chicago Center
14:13 41.7667 -87.8167 262° West 195 224 3,100 2,460 Climbing Chicago TRACON
14:14 41.7769 -88.8414 231° Southwest  Level FlightAware Approximate
14:15 41.7316 -88.9153 231° Southwest  Level FlightAware Approximate
14:15 41.7333 -87.9000 242° Southwest 257 296 5,700  Level Chicago TRACON
14:15 41.7414 -87.9514 282° West 254 292 7,600 3,420 Climbing Chicago Center
14:16 41.7296 -89.0109 270° West  Level Estimated
14:16 41.7414 -88.0519 270° West 274 315 11,400  Level Chicago Center
14:17 41.7100 -89.1028 254° West  Level FlightAware Approximate
14:17 41.7786 -88.1669 293° West 292 336 12,000  Level Chicago Center
14:18 41.7082 -89.1984 265° West  Level Estimated
14:18 41.7822 -88.2678 273° West 279 321 12,100  Level Chicago Center
14:19 41.7808 -88.3694 269° West 276 318 15,000 2,820 Climbing Chicago Center
14:20 41.7803 -88.4781 270° West 290 334 18,000 2,220 Climbing Chicago Center
14:21 41.7717 -88.5939 264° West 313 360 19,700 1,980 Climbing Chicago Center
14:22 41.7481 -88.7547 259° West 365 420 22,200 2,340 Climbing Chicago Center
14:23 41.7294 -88.8947 260° West 380 437 24,600 2,280 Climbing Chicago Center
14:24 41.7119 -89.0372 261° West 389 448 27,000 2,280 Climbing Chicago Center
14:25 41.6936 -89.1806 260° West 393 452 29,400 2,220 Climbing Chicago Center
14:26 41.6947 -89.3236 271° West 387 445 31,700 1,200 Climbing Chicago Center
14:28 41.6919 -89.4975 269° West 390 449 32,000 120 Climbing Chicago Center
14:29 41.6886 -89.6433 268° West 385 443 32,000  Level Chicago Center
14:30 41.6864 -89.7856 269° West 383 441 32,000  Level Chicago Center
14:31 41.6825 -89.9286 268° West 384 442 32,000  Level Chicago Center
14:32 41.6800 -90.0711 269° West 384 442 32,000  Level Chicago Center
14:33 41.6767 -90.2156 268° West 390 449 32,000  Level Chicago Center
14:34 41.6708 -90.3958 268° West 406 467 32,000  Level Chicago Center
14:35 41.6664 -90.5417 268° West 396 456 32,000  Level Chicago Center
14:36 41.6619 -90.6917 268° West 396 456 32,000  Level Chicago Center
14:37 41.6569 -90.8394 267° West 400 460 32,000  Level Chicago Center
14:38 41.6533 -90.9850 268° West 396 456 32,000  Level Chicago Center
14:39 41.6481 -91.1331 267° West 400 460 32,000  Level Chicago Center
14:40 41.6419 -91.3072 267° West 395 455 32,000 -180 Level Chicago Center
14:41 41.6364 -91.4531 267° West 395 455 31,700 -660 Descending Chicago Center
14:42 41.6314 -91.5981 267° West 394 453 30,700 -1,020 Descending Chicago Center
14:43 41.6264 -91.7389 267° West 388 447 29,600 -1,020 Descending Chicago Center
14:44 41.6200 -91.8761 266° West 379 436 28,600 -1,500 Descending Chicago Center
14:45 41.6139 -92.0378 267° West 371 427 26,600 -1,860 Descending Chicago Center
14:46 41.6081 -92.1719 267° West 365 420 24,800 -1,800 Descending Chicago Center
14:47 41.6028 -92.3006 267° West 353 406 22,900 -1,800 Descending Chicago Center
14:48 41.5961 -92.4250 266° West 341 392 21,100 -1,800 Descending Chicago Center
14:49 41.5908 -92.5472 267° West 334 384 19,300 -1,860 Descending Chicago Center
14:50 41.5858 -92.6583 267° West 330 380 17,700 -1,920 Descending Minneapolis Center
14:51 41.5803 -92.7883 267° West 327 376 15,800 -1,800 Descending Minneapolis Center
14:52 41.5739 -92.9075 266° West 325 374 14,100 -1,800 Descending Minneapolis Center
14:53 41.5678 -93.0361 266° West 323 372 12,200 -1,800 Descending Minneapolis Center
14:54 41.5494 -93.1500 258° West 316 364 10,500 -1,500 Descending Minneapolis Center
14:55 41.5214 -93.2608 251° West 294 338 9,200 -1,260 Descending Minneapolis Center
14:56 41.5025 -93.3369 252° West 285 328 8,000 -1,560 Descending Minneapolis Center
14:57 41.4697 -93.4661 251° West 280 322 6,000 -1,440 Descending Minneapolis Center
14:58 41.4447 -93.5608 251° West 272 313 5,000 -840 Descending Minneapolis Center
14:59 41.4311 -93.6353 256° West 235 270 4,300 -900 Descending Minneapolis Center
15:00 41.4081 -93.7150 249° West 232 267 3,300 -840 Descending Minneapolis Center
15:01 41.4353 -93.7597 309° West 187 215 2,700 -480 Descending Minneapolis Center
15:02 41.4797 -93.7519 North 165 190 2,400 -540 Descending Minneapolis Center
15:04 41.5039 -93.7125 51° Northeast 140 161 1,600 -780 Descending Minneapolis Center
15:05 41.5258 -93.6722 54° Northeast 143 165 900 -720 Descending Minneapolis Center